Time;durP1;ratioP1;P1;durP2;ratioP2;P2;SDS_P1;SDS_P2;PMS_P1;PMS_P2;Temp;Humidity;BMP_temperature;BMP_pressure;BME280_temperature;BME280_humidity;BME280_pressure;Samples;Min_cycle;Max_cycle;Signal;HPM_P1;HPM_P2
2022/03/27 00:00:57;;;;;;;;;;;6.00;99.90;;;;;;5086271;28;19921;-70
2022/03/27 00:03:24;;;;;;;;;;;6.00;99.90;;;;;;5084346;28;19924;-69
2022/03/27 00:05:50;;;;;;;;;;;6.00;99.90;;;;;;5085305;28;19920;-69
2022/03/27 00:08:18;;;;;;;;;;;6.00;99.90;;;;;;5086234;28;19927;-69
2022/03/27 00:13:29;;;;;;;;;;;5.90;99.90;;;;;;5085779;28;19963;-69
2022/03/27 00:15:55;;;;;;;;;;;5.80;99.90;;;;;;5087875;28;20249;-69
2022/03/27 00:18:22;;;;;;;;;;;5.80;99.90;;;;;;5095535;28;20144;-69
2022/03/27 00:20:49;;;;;;;;;;;5.70;99.90;;;;;;5086232;28;19920;-69
2022/03/27 00:23:15;;;;;;;;;;;5.70;99.90;;;;;;5085814;28;19926;-69
2022/03/27 00:25:45;;;;;;;;;;;5.70;99.90;;;;;;5085050;28;19927;-69
2022/03/27 00:28:14;;;;;;;;;;;5.60;99.90;;;;;;5087278;28;19920;-69
2022/03/27 00:30:40;;;;;;;;;;;5.60;99.90;;;;;;5085675;28;19920;-68
2022/03/27 00:33:07;;;;;;;;;;;5.50;99.90;;;;;;5088949;28;19951;-69
2022/03/27 00:35:34;;;;;;;;;;;5.50;99.90;;;;;;5101309;28;19921;-69
2022/03/27 00:38:00;;;;;;;;;;;5.50;99.90;;;;;;5086114;28;19920;-69
2022/03/27 00:40:27;;;;;;;;;;;5.50;99.90;;;;;;5101090;28;19927;-69
2022/03/27 00:42:55;;;;;;;;;;;5.40;99.90;;;;;;5106282;28;19926;-69
2022/03/27 00:45:27;;;;;;;;;;;5.40;99.90;;;;;;5099564;28;19928;-69
2022/03/27 00:47:54;;;;;;;;;;;5.30;99.90;;;;;;5104228;28;19920;-68
2022/03/27 00:50:21;;;;;;;;;;;5.30;99.90;;;;;;5085929;28;19920;-69
2022/03/27 00:52:47;;;;;;;;;;;5.20;99.90;;;;;;5105558;28;19920;-68
2022/03/27 00:55:14;;;;;;;;;;;5.10;99.90;;;;;;5086378;28;19925;-69
2022/03/27 00:57:41;;;;;;;;;;;5.00;99.90;;;;;;5096729;28;20093;-68
2022/03/27 01:00:11;;;;;;;;;;;5.00;99.90;;;;;;5088915;28;19974;-68
2022/03/27 01:02:37;;;;;;;;;;;5.00;99.90;;;;;;5081209;28;19927;-69
2022/03/27 01:05:13;;;;;;;;;;;4.90;99.90;;;;;;5081852;28;19921;-69
2022/03/27 01:07:40;;;;;;;;;;;4.90;99.90;;;;;;5065665;28;20112;-69
2022/03/27 01:10:06;;;;;;;;;;;4.90;99.90;;;;;;5098990;28;19920;-68
2022/03/27 01:12:36;;;;;;;;;;;4.90;99.90;;;;;;5095059;28;19916;-69
2022/03/27 01:15:04;;;;;;;;;;;4.80;99.90;;;;;;5085560;28;19928;-69
2022/03/27 01:17:34;;;;;;;;;;;4.70;99.90;;;;;;5092095;28;19956;-69
2022/03/27 01:20:03;;;;;;;;;;;4.70;99.90;;;;;;5085620;28;20204;-69
2022/03/27 01:22:30;;;;;;;;;;;4.60;99.90;;;;;;5085482;28;19920;-69
2022/03/27 01:24:57;;;;;;;;;;;4.60;99.90;;;;;;5085267;28;19927;-69
2022/03/27 01:27:23;;;;;;;;;;;4.60;99.90;;;;;;5098357;28;19920;-68
2022/03/27 01:29:50;;;;;;;;;;;4.60;99.90;;;;;;5090799;28;19963;-69
2022/03/27 01:32:17;;;;;;;;;;;4.60;99.90;;;;;;5078372;28;19921;-69
2022/03/27 01:34:45;;;;;;;;;;;4.70;99.90;;;;;;5105585;28;19920;-69
2022/03/27 01:37:14;;;;;;;;;;;4.60;99.90;;;;;;5089013;28;19927;-69
2022/03/27 01:39:41;;;;;;;;;;;4.50;99.90;;;;;;5098668;28;19928;-69
2022/03/27 01:42:08;;;;;;;;;;;4.60;99.90;;;;;;5105189;28;19920;-69
2022/03/27 01:44:35;;;;;;;;;;;4.50;99.90;;;;;;5098938;28;19921;-68
2022/03/27 01:47:01;;;;;;;;;;;4.50;99.90;;;;;;5099778;28;19927;-68
2022/03/27 01:49:28;;;;;;;;;;;4.40;99.90;;;;;;5105161;28;19971;-68
2022/03/27 01:51:54;;;;;;;;;;;4.40;99.90;;;;;;5086913;28;19924;-69
2022/03/27 01:54:22;;;;;;;;;;;4.40;99.90;;;;;;5084424;28;19920;-69
2022/03/27 01:56:49;;;;;;;;;;;4.40;99.90;;;;;;5092088;28;19920;-68
2022/03/27 01:59:16;;;;;;;;;;;4.40;99.90;;;;;;5084753;28;19920;-69
2022/03/27 02:01:42;;;;;;;;;;;4.40;99.90;;;;;;5084140;28;19920;-69
2022/03/27 02:04:11;;;;;;;;;;;4.40;99.90;;;;;;5075580;28;20277;-69
2022/03/27 02:06:39;;;;;;;;;;;4.30;99.90;;;;;;5084241;28;19921;-69
2022/03/27 02:09:06;;;;;;;;;;;4.30;99.90;;;;;;5098771;28;19920;-69
2022/03/27 02:11:34;;;;;;;;;;;4.30;99.90;;;;;;5098750;28;19924;-69
2022/03/27 02:14:01;;;;;;;;;;;4.20;99.90;;;;;;5090549;28;19927;-69
2022/03/27 02:16:27;;;;;;;;;;;4.20;99.90;;;;;;5092074;28;19927;-69
2022/03/27 02:18:54;;;;;;;;;;;4.20;99.90;;;;;;5096103;28;19926;-69
2022/03/27 02:21:22;;;;;;;;;;;4.10;99.90;;;;;;5098523;28;19924;-69
2022/03/27 02:23:49;;;;;;;;;;;4.10;99.90;;;;;;5096806;28;19921;-69
2022/03/27 02:26:16;;;;;;;;;;;4.10;99.90;;;;;;5093182;28;19927;-69
2022/03/27 02:28:44;;;;;;;;;;;4.00;99.90;;;;;;5099562;28;20207;-69
2022/03/27 02:31:11;;;;;;;;;;;4.00;99.90;;;;;;5085907;28;19921;-69
2022/03/27 02:33:38;;;;;;;;;;;3.90;99.90;;;;;;5104379;28;19920;-69
2022/03/27 02:36:06;;;;;;;;;;;3.80;99.90;;;;;;5103756;28;19924;-68
2022/03/27 02:38:32;;;;;;;;;;;3.80;99.90;;;;;;5085746;28;19920;-69
2022/03/27 02:40:59;;;;;;;;;;;3.80;99.90;;;;;;5083622;28;19920;-68
2022/03/27 02:43:25;;;;;;;;;;;3.80;99.90;;;;;;5093610;28;19926;-69
2022/03/27 02:45:54;;;;;;;;;;;3.70;99.90;;;;;;5103373;28;19927;-69
2022/03/27 02:48:21;;;;;;;;;;;3.70;99.90;;;;;;5102297;28;20150;-69
2022/03/27 02:50:48;;;;;;;;;;;3.70;99.90;;;;;;5083040;28;19991;-69
2022/03/27 02:53:14;;;;;;;;;;;3.60;99.90;;;;;;5083753;28;20279;-69
2022/03/27 02:55:41;;;;;;;;;;;3.60;99.90;;;;;;5096978;28;19928;-69
2022/03/27 02:58:08;;;;;;;;;;;3.50;99.90;;;;;;5104042;28;19927;-68
2022/03/27 03:00:35;;;;;;;;;;;3.50;99.90;;;;;;5098157;28;19927;-68
2022/03/27 03:03:03;;;;;;;;;;;3.50;99.90;;;;;;5074843;28;19928;-69
2022/03/27 03:05:29;;;;;;;;;;;3.50;99.90;;;;;;5074620;28;20143;-68
2022/03/27 03:07:57;;;;;;;;;;;3.50;99.90;;;;;;5101586;28;19920;-69
2022/03/27 03:10:23;;;;;;;;;;;3.50;99.90;;;;;;5103400;28;19926;-69
2022/03/27 03:12:50;;;;;;;;;;;3.40;99.90;;;;;;5094027;28;19921;-68
2022/03/27 03:15:17;;;;;;;;;;;3.40;99.90;;;;;;5083111;28;19920;-69
2022/03/27 03:17:43;;;;;;;;;;;3.40;99.90;;;;;;5084856;28;19920;-69
2022/03/27 03:20:12;;;;;;;;;;;3.40;99.90;;;;;;5099439;28;19920;-69
2022/03/27 03:22:40;;;;;;;;;;;3.30;99.90;;;;;;5080747;28;19991;-68
2022/03/27 03:25:07;;;;;;;;;;;3.30;99.90;;;;;;5083099;28;19995;-68
2022/03/27 03:27:34;;;;;;;;;;;3.30;99.90;;;;;;5070984;28;19921;-69
2022/03/27 03:30:01;;;;;;;;;;;3.30;99.90;;;;;;5083971;28;19920;-69
2022/03/27 03:32:28;;;;;;;;;;;3.30;99.90;;;;;;5103893;28;19920;-68
2022/03/27 03:34:55;;;;;;;;;;;3.30;99.90;;;;;;5103618;28;19920;-69
2022/03/27 03:37:23;;;;;;;;;;;3.30;99.90;;;;;;5085047;28;19920;-69
2022/03/27 03:39:50;;;;;;;;;;;3.20;99.90;;;;;;5082936;28;19920;-68
2022/03/27 03:42:16;;;;;;;;;;;3.20;99.90;;;;;;5083243;28;19920;-69
2022/03/27 03:44:43;;;;;;;;;;;3.10;99.90;;;;;;5063270;28;19920;-69
2022/03/27 03:47:10;;;;;;;;;;;3.10;99.90;;;;;;5062380;28;19920;-69
2022/03/27 03:49:37;;;;;;;;;;;3.00;99.90;;;;;;5098640;28;19921;-69
2022/03/27 03:52:04;;;;;;;;;;;3.00;99.90;;;;;;5090202;28;20216;-69
2022/03/27 03:54:32;;;;;;;;;;;2.90;99.90;;;;;;5091821;28;19951;-69
2022/03/27 03:56:58;;;;;;;;;;;2.90;99.90;;;;;;5085577;28;19929;-69
2022/03/27 03:59:25;;;;;;;;;;;2.90;99.90;;;;;;5083734;28;19921;-69
2022/03/27 04:01:52;;;;;;;;;;;2.90;99.90;;;;;;5091703;28;19927;-69
2022/03/27 04:04:18;;;;;;;;;;;2.90;99.90;;;;;;5079567;28;19927;-69
2022/03/27 04:06:45;;;;;;;;;;;2.90;99.90;;;;;;5081159;28;19928;-69
2022/03/27 04:09:12;;;;;;;;;;;2.90;99.90;;;;;;5086275;28;19966;-69
2022/03/27 04:11:40;;;;;;;;;;;2.90;99.90;;;;;;5091199;28;19920;-69
2022/03/27 04:14:06;;;;;;;;;;;2.80;99.90;;;;;;5087950;28;19943;-68
2022/03/27 04:16:33;;;;;;;;;;;2.80;99.90;;;;;;5085479;28;19920;-69
2022/03/27 04:18:59;;;;;;;;;;;2.80;99.90;;;;;;5085320;28;19920;-69
2022/03/27 04:21:26;;;;;;;;;;;2.80;99.90;;;;;;5085944;28;19925;-68
2022/03/27 04:23:53;;;;;;;;;;;2.70;99.90;;;;;;5085695;28;19920;-69
2022/03/27 04:26:19;;;;;;;;;;;2.70;99.90;;;;;;5084686;28;19920;-69
2022/03/27 04:28:47;;;;;;;;;;;2.70;99.90;;;;;;5086033;28;19920;-69
2022/03/27 04:31:14;;;;;;;;;;;2.70;99.90;;;;;;5075366;28;20269;-69
2022/03/27 04:33:41;;;;;;;;;;;2.60;99.90;;;;;;5086190;28;19926;-68
2022/03/27 04:36:08;;;;;;;;;;;2.60;99.90;;;;;;5097363;28;19920;-69
2022/03/27 04:38:35;;;;;;;;;;;2.60;99.90;;;;;;5105985;28;19959;-69
2022/03/27 04:41:01;;;;;;;;;;;2.60;99.90;;;;;;5101891;28;19920;-69
2022/03/27 04:43:28;;;;;;;;;;;2.60;99.90;;;;;;5085504;28;19928;-69
2022/03/27 04:45:56;;;;;;;;;;;2.50;99.90;;;;;;5085049;28;19927;-69
2022/03/27 04:48:25;;;;;;;;;;;2.50;99.90;;;;;;5078847;28;19920;-69
2022/03/27 04:50:52;;;;;;;;;;;2.50;99.90;;;;;;5092962;28;19920;-69
2022/03/27 04:53:19;;;;;;;;;;;2.50;99.90;;;;;;5092666;28;19921;-68
2022/03/27 04:55:45;;;;;;;;;;;2.40;99.90;;;;;;5084473;28;19929;-69
2022/03/27 04:58:12;;;;;;;;;;;2.40;99.90;;;;;;5085000;28;20291;-69
2022/03/27 05:00:39;;;;;;;;;;;2.30;99.90;;;;;;5086624;28;19952;-69
2022/03/27 05:03:07;;;;;;;;;;;2.40;99.90;;;;;;5087229;28;19927;-69
2022/03/27 05:05:33;;;;;;;;;;;2.30;99.90;;;;;;5077891;28;19920;-69
2022/03/27 05:08:00;;;;;;;;;;;2.30;99.90;;;;;;5085319;28;19926;-69
2022/03/27 05:10:27;;;;;;;;;;;2.20;99.90;;;;;;5084862;28;19924;-69
2022/03/27 05:12:53;;;;;;;;;;;2.20;99.90;;;;;;5084946;28;19921;-69
2022/03/27 05:15:20;;;;;;;;;;;2.30;99.90;;;;;;5083995;28;19928;-69
2022/03/27 05:17:47;;;;;;;;;;;2.20;99.90;;;;;;5104818;28;19924;-69
2022/03/27 05:20:15;;;;;;;;;;;2.30;99.90;;;;;;5084488;28;19920;-69
2022/03/27 05:22:42;;;;;;;;;;;2.30;99.90;;;;;;5084704;28;19935;-67
2022/03/27 05:25:09;;;;;;;;;;;2.30;99.90;;;;;;5084711;28;20151;-68
2022/03/27 05:27:42;;;;;;;;;;;2.30;99.90;;;;;;5076224;28;19920;-68
2022/03/27 05:30:10;;;;;;;;;;;2.30;99.90;;;;;;5084214;28;19920;-69
2022/03/27 05:32:36;;;;;;;;;;;2.30;99.90;;;;;;5083847;28;19966;-69
2022/03/27 05:35:03;;;;;;;;;;;2.30;99.90;;;;;;5094944;28;19920;-70
2022/03/27 05:37:34;;;;;;;;;;;2.30;99.90;;;;;;5084162;28;19974;-69
2022/03/27 05:40:02;;;;;;;;;;;2.30;99.90;;;;;;5092975;28;19924;-69
2022/03/27 05:42:29;;;;;;;;;;;2.30;99.90;;;;;;5105194;28;20237;-69
2022/03/27 05:44:55;;;;;;;;;;;2.30;99.90;;;;;;5088098;28;20108;-69
2022/03/27 05:47:22;;;;;;;;;;;2.40;99.90;;;;;;5094084;28;20124;-69
2022/03/27 05:49:49;;;;;;;;;;;2.40;99.90;;;;;;5083842;28;19921;-69
2022/03/27 05:52:16;;;;;;;;;;;2.40;99.90;;;;;;5087254;28;19924;-69
2022/03/27 05:54:44;;;;;;;;;;;2.40;99.90;;;;;;5084006;28;19928;-69
2022/03/27 05:57:11;;;;;;;;;;;2.30;99.90;;;;;;5083451;28;19926;-69
2022/03/27 05:59:37;;;;;;;;;;;2.30;99.90;;;;;;5084060;28;19920;-70
2022/03/27 06:02:04;;;;;;;;;;;2.30;99.90;;;;;;5083793;28;19928;-70
2022/03/27 06:04:31;;;;;;;;;;;2.30;99.90;;;;;;5079347;28;20125;-70
2022/03/27 06:06:57;;;;;;;;;;;2.40;99.90;;;;;;5083159;28;20208;-69
2022/03/27 06:09:24;;;;;;;;;;;2.40;99.90;;;;;;5083800;28;19929;-70
2022/03/27 06:11:52;;;;;;;;;;;2.40;99.90;;;;;;5082506;28;19921;-70
2022/03/27 06:14:18;;;;;;;;;;;2.50;99.90;;;;;;5087525;28;19921;-70
2022/03/27 06:16:45;;;;;;;;;;;2.50;99.90;;;;;;5079475;28;19959;-70
2022/03/27 06:19:12;;;;;;;;;;;2.50;99.90;;;;;;5085363;28;20119;-69
2022/03/27 06:21:38;;;;;;;;;;;2.50;99.90;;;;;;5093913;28;19926;-70
2022/03/27 06:24:05;;;;;;;;;;;2.60;99.90;;;;;;5094022;28;19920;-70
2022/03/27 06:26:32;;;;;;;;;;;2.60;99.90;;;;;;5089182;28;19920;-70
2022/03/27 06:29:00;;;;;;;;;;;2.70;99.90;;;;;;5086090;28;19927;-70
2022/03/27 06:31:26;;;;;;;;;;;2.70;99.90;;;;;;5081763;28;19935;-70
2022/03/27 06:33:53;;;;;;;;;;;2.80;99.90;;;;;;5095405;28;19927;-70
2022/03/27 06:36:19;;;;;;;;;;;2.80;99.90;;;;;;5092167;28;19927;-70
2022/03/27 06:38:46;;;;;;;;;;;2.90;99.90;;;;;;5103496;28;19920;-69
2022/03/27 06:41:12;;;;;;;;;;;2.90;99.90;;;;;;5089281;28;19925;-70
2022/03/27 06:43:39;;;;;;;;;;;3.00;99.90;;;;;;5089714;28;19928;-70
2022/03/27 06:46:07;;;;;;;;;;;3.10;99.90;;;;;;5085561;28;19921;-70
2022/03/27 06:48:34;;;;;;;;;;;3.10;99.90;;;;;;5083162;28;19927;-70
2022/03/27 06:51:00;;;;;;;;;;;3.20;99.90;;;;;;5089779;28;19926;-69
2022/03/27 06:53:27;;;;;;;;;;;3.30;99.90;;;;;;5092095;28;19927;-69
2022/03/27 06:55:53;;;;;;;;;;;3.40;99.90;;;;;;5082589;28;19928;-70
2022/03/27 06:58:20;;;;;;;;;;;3.50;99.90;;;;;;5083136;28;19926;-70
2022/03/27 07:03:32;;;;;;;;;;;3.70;99.90;;;;;;5078407;28;19939;-70
2022/03/27 07:05:59;;;;;;;;;;;3.80;99.90;;;;;;5075682;28;19991;-69
2022/03/27 07:08:25;;;;;;;;;;;4.00;99.90;;;;;;5082559;28;19920;-69
2022/03/27 07:10:52;;;;;;;;;;;4.10;99.90;;;;;;5082573;28;19928;-70
2022/03/27 07:13:19;;;;;;;;;;;4.30;99.90;;;;;;5089357;28;20202;-70
2022/03/27 07:15:46;;;;;;;;;;;4.40;99.90;;;;;;5100056;28;19924;-70
2022/03/27 07:18:14;;;;;;;;;;;4.60;99.90;;;;;;5082858;28;19921;-69
2022/03/27 07:20:43;;;;;;;;;;;4.60;99.90;;;;;;5082325;28;19983;-70
2022/03/27 07:23:11;;;;;;;;;;;4.80;99.90;;;;;;5082832;28;19987;-70
2022/03/27 07:25:39;;;;;;;;;;;5.00;99.90;;;;;;5082528;28;19928;-70
2022/03/27 07:28:07;;;;;;;;;;;5.20;99.90;;;;;;5082884;28;19928;-70
2022/03/27 07:30:33;;;;;;;;;;;5.30;99.90;;;;;;5092087;28;20159;-70
2022/03/27 07:33:00;;;;;;;;;;;5.50;99.90;;;;;;5082399;28;19921;-70
2022/03/27 07:35:27;;;;;;;;;;;5.60;99.90;;;;;;5083888;28;19921;-70
2022/03/27 07:37:55;;;;;;;;;;;5.70;99.90;;;;;;5095654;28;20155;-70
2022/03/27 07:40:21;;;;;;;;;;;5.80;99.90;;;;;;5086461;28;19920;-69
2022/03/27 07:42:50;;;;;;;;;;;5.90;99.90;;;;;;5088115;28;20143;-70
2022/03/27 07:45:18;;;;;;;;;;;6.00;99.90;;;;;;5086292;28;19927;-69
2022/03/27 07:47:45;;;;;;;;;;;6.20;99.90;;;;;;5095315;28;19924;-70
2022/03/27 07:50:12;;;;;;;;;;;6.30;99.90;;;;;;5092455;28;19927;-69
2022/03/27 07:52:38;;;;;;;;;;;6.40;99.90;;;;;;5090886;28;19920;-70
2022/03/27 07:55:07;;;;;;;;;;;6.60;99.90;;;;;;5100621;28;20108;-70
2022/03/27 07:57:34;;;;;;;;;;;6.80;99.90;;;;;;5103818;28;19920;-70
2022/03/27 08:00:02;;;;;;;;;;;7.00;99.90;;;;;;5090635;28;20200;-70
2022/03/27 08:02:28;;;;;;;;;;;7.20;99.90;;;;;;5083360;28;19932;-69
2022/03/27 08:04:55;;;;;;;;;;;7.50;99.90;;;;;;5089804;28;19920;-71
2022/03/27 08:07:22;;;;;;;;;;;7.90;99.90;;;;;;5093207;28;19920;-71
2022/03/27 08:09:48;;;;;;;;;;;8.20;99.90;;;;;;5106820;28;20233;-70
2022/03/27 08:12:17;;;;;;;;;;;8.50;99.90;;;;;;5080943;28;19919;-70
2022/03/27 08:14:48;;;;;;;;;;;8.70;99.90;;;;;;5097747;28;19959;-71
2022/03/27 08:17:15;;;;;;;;;;;8.90;99.90;;;;;;5085891;28;19942;-71
2022/03/27 08:19:43;;;;;;;;;;;9.20;99.90;;;;;;5096854;28;19927;-70
2022/03/27 08:22:09;;;;;;;;;;;9.30;99.90;;;;;;5106374;28;19982;-70
2022/03/27 08:24:36;;;;;;;;;;;9.40;99.90;;;;;;5104383;28;19920;-70
2022/03/27 08:27:04;;;;;;;;;;;9.50;99.90;;;;;;5085919;28;19928;-70
2022/03/27 08:29:35;;;;;;;;;;;9.60;99.90;;;;;;5084324;28;20256;-71
2022/03/27 08:32:03;;;;;;;;;;;9.80;99.90;;;;;;5101637;28;19920;-70
2022/03/27 08:34:30;;;;;;;;;;;10.00;99.90;;;;;;5106419;28;19955;-70
2022/03/27 08:36:57;;;;;;;;;;;10.20;99.90;;;;;;5099932;28;19920;-71
2022/03/27 08:39:27;;;;;;;;;;;10.30;99.90;;;;;;5099277;28;20204;-70
2022/03/27 08:41:54;;;;;;;;;;;10.50;99.90;;;;;;5095425;28;19926;-71
2022/03/27 08:44:21;;;;;;;;;;;10.50;99.90;;;;;;5086457;28;19920;-71
2022/03/27 08:46:50;;;;;;;;;;;10.60;99.90;;;;;;5102855;28;19926;-71
2022/03/27 08:49:29;;;;;;;;;;;10.70;99.90;;;;;;5093576;28;19921;-71
2022/03/27 08:51:56;;;;;;;;;;;10.90;99.90;;;;;;5097603;28;19920;-70
2022/03/27 08:54:24;;;;;;;;;;;11.10;99.90;;;;;;5100662;28;20220;-70
2022/03/27 08:57:04;;;;;;;;;;;11.20;99.90;;;;;;5088065;28;19920;-70
2022/03/27 08:59:32;;;;;;;;;;;11.40;99.90;;;;;;5095663;28;20117;-70
2022/03/27 09:02:00;;;;;;;;;;;11.50;99.90;;;;;;5100840;28;19942;-71
2022/03/27 09:04:27;;;;;;;;;;;11.50;99.90;;;;;;5090822;28;20149;-67
2022/03/27 09:06:54;;;;;;;;;;;11.70;99.90;;;;;;5099994;28;19920;-68
2022/03/27 09:09:20;;;;;;;;;;;11.90;99.90;;;;;;5086470;28;19921;-68
2022/03/27 09:11:47;;;;;;;;;;;12.10;99.90;;;;;;5084806;28;20093;-68
2022/03/27 09:14:15;;;;;;;;;;;12.20;99.90;;;;;;5101482;28;19920;-68
2022/03/27 09:17:00;;;;;;;;;;;12.30;99.90;;;;;;5102459;28;19920;-68
2022/03/27 09:19:33;;;;;;;;;;;12.40;99.90;;;;;;5105202;28;19920;-68
2022/03/27 09:22:00;;;;;;;;;;;12.50;99.90;;;;;;5087955;28;19927;-68
2022/03/27 09:24:33;;;;;;;;;;;12.50;99.90;;;;;;5088047;28;19920;-67
2022/03/27 09:27:00;;;;;;;;;;;12.60;99.90;;;;;;5089247;28;19920;-68
2022/03/27 09:29:27;;;;;;;;;;;12.80;99.90;;;;;;5092458;28;19920;-70
2022/03/27 09:31:57;;;;;;;;;;;12.90;99.90;;;;;;5084466;28;19926;-68
2022/03/27 09:34:24;;;;;;;;;;;13.00;99.90;;;;;;5102868;28;19920;-70
2022/03/27 09:36:52;;;;;;;;;;;13.10;99.90;;;;;;5098367;28;19920;-70
2022/03/27 09:39:20;;;;;;;;;;;13.20;99.90;;;;;;5095184;28;19978;-70
2022/03/27 09:41:47;;;;;;;;;;;13.30;99.90;;;;;;5086475;28;19975;-70
2022/03/27 09:44:15;;;;;;;;;;;13.40;99.90;;;;;;5086467;28;19920;-70
2022/03/27 09:46:51;;;;;;;;;;;13.50;99.90;;;;;;5100293;28;19927;-70
2022/03/27 09:49:18;;;;;;;;;;;13.60;99.90;;;;;;5084623;28;20275;-70
2022/03/27 09:51:57;;;;;;;;;;;13.70;99.90;;;;;;5098936;28;20223;-70
2022/03/27 09:54:23;;;;;;;;;;;13.80;99.90;;;;;;5085752;28;19921;-71
2022/03/27 09:56:50;;;;;;;;;;;13.80;99.90;;;;;;5092719;28;19920;-70
2022/03/27 09:59:26;;;;;;;;;;;13.80;99.90;;;;;;5094539;28;19920;-70
2022/03/27 10:01:52;;;;;;;;;;;13.90;99.90;;;;;;5085956;28;19920;-70
2022/03/27 10:04:19;;;;;;;;;;;14.10;99.90;;;;;;5079748;28;19987;-70
2022/03/27 10:06:45;;;;;;;;;;;14.20;99.90;;;;;;5098756;28;20089;-70
2022/03/27 10:09:14;;;;;;;;;;;14.40;99.90;;;;;;5097646;28;19920;-70
2022/03/27 10:11:41;;;;;;;;;;;14.50;99.90;;;;;;5095558;28;19920;-70
2022/03/27 10:14:09;;;;;;;;;;;14.60;99.90;;;;;;5084196;28;20205;-69
2022/03/27 10:16:36;;;;;;;;;;;14.80;99.90;;;;;;5086719;28;19920;-70
2022/03/27 10:19:04;;;;;;;;;;;14.90;99.90;;;;;;5083940;28;19920;-70
2022/03/27 10:21:32;;;;;;;;;;;15.00;99.90;;;;;;5083698;28;19927;-70
2022/03/27 10:24:05;;;;;;;;;;;15.10;99.90;;;;;;5093566;28;19931;-70
2022/03/27 10:26:34;;;;;;;;;;;15.20;99.90;;;;;;5076276;28;19935;-71
2022/03/27 10:29:01;;;;;;;;;;;15.30;99.90;;;;;;5079164;28;19921;-70
2022/03/27 10:31:28;;;;;;;;;;;15.40;99.90;;;;;;5076940;28;19928;-70
2022/03/27 10:33:58;;;;;;;;;;;15.60;99.90;;;;;;5083558;28;19920;-70
2022/03/27 10:36:29;;;;;;;;;;;15.60;99.90;;;;;;5103121;28;19920;-70
2022/03/27 10:39:05;;;;;;;;;;;15.70;99.90;;;;;;5103326;28;19920;-71
2022/03/27 10:41:36;;;;;;;;;;;15.80;99.90;;;;;;5086567;28;19921;-70
2022/03/27 10:44:07;;;;;;;;;;;15.90;99.90;;;;;;5086107;28;19924;-70
2022/03/27 10:46:35;;;;;;;;;;;16.10;99.90;;;;;;5091267;28;19920;-71
2022/03/27 10:49:11;;;;;;;;;;;16.20;99.90;;;;;;5097247;28;20085;-71
2022/03/27 10:51:39;;;;;;;;;;;16.30;99.90;;;;;;5085140;28;19959;-70
2022/03/27 10:54:07;;;;;;;;;;;16.50;99.90;;;;;;5099002;28;19920;-70
2022/03/27 10:56:39;;;;;;;;;;;16.60;99.90;;;;;;5103075;28;19975;-69
2022/03/27 10:59:13;;;;;;;;;;;16.80;99.90;;;;;;5089138;28;19920;-70
2022/03/27 11:01:42;;;;;;;;;;;16.90;99.90;;;;;;5094099;28;19995;-70
2022/03/27 11:04:10;;;;;;;;;;;17.10;99.90;;;;;;5090891;28;19927;-70
2022/03/27 11:06:37;;;;;;;;;;;17.20;99.90;;;;;;5078317;28;20212;-71
2022/03/27 11:09:05;;;;;;;;;;;17.30;99.90;;;;;;5074679;28;20132;-71
2022/03/27 11:11:53;;;;;;;;;;;17.50;99.90;;;;;;5082326;28;19921;-70
2022/03/27 11:14:24;;;;;;;;;;;17.60;99.90;;;;;;5082700;28;20154;-69
2022/03/27 11:17:05;;;;;;;;;;;17.70;99.90;;;;;;5081930;28;19942;-70
2022/03/27 11:19:45;;;;;;;;;;;17.70;99.90;;;;;;5082708;28;19924;-70
2022/03/27 11:22:30;;;;;;;;;;;17.70;99.90;;;;;;5081462;28;19920;-70
2022/03/27 11:25:12;;;;;;;;;;;17.70;99.90;;;;;;5081276;28;19978;-70
2022/03/27 11:27:56;;;;;;;;;;;17.80;99.90;;;;;;5076621;28;19920;-69
2022/03/27 11:30:23;;;;;;;;;;;17.90;99.00;;;;;;5089632;28;19921;-73
2022/03/27 11:33:05;;;;;;;;;;;17.90;98.70;;;;;;5083750;28;20010;-70
2022/03/27 11:35:31;;;;;;;;;;;17.90;98.70;;;;;;5102095;28;19920;-70
2022/03/27 11:38:17;;;;;;;;;;;18.00;99.00;;;;;;5103038;28;19979;-70
2022/03/27 11:40:43;;;;;;;;;;;18.30;98.00;;;;;;5103114;28;20226;-70
2022/03/27 11:43:25;;;;;;;;;;;18.50;98.30;;;;;;5091484;28;19921;-70
2022/03/27 11:45:55;;;;;;;;;;;18.70;97.70;;;;;;5093075;28;19987;-68
2022/03/27 11:48:23;;;;;;;;;;;18.90;98.00;;;;;;5096430;28;19928;-69
2022/03/27 11:50:49;;;;;;;;;;;19.10;97.50;;;;;;5077794;28;20170;-69
2022/03/27 11:53:16;;;;;;;;;;;19.20;97.30;;;;;;5098665;28;19925;-69
2022/03/27 11:55:43;;;;;;;;;;;19.30;97.40;;;;;;5096490;28;20115;-68
2022/03/27 11:58:11;;;;;;;;;;;19.50;97.00;;;;;;5082837;28;19920;-69
2022/03/27 12:00:39;;;;;;;;;;;19.60;96.40;;;;;;5088060;28;20207;-67
2022/03/27 12:03:15;;;;;;;;;;;19.80;95.00;;;;;;5078342;28;19920;-67
2022/03/27 12:05:41;;;;;;;;;;;19.90;95.50;;;;;;5080588;28;19962;-67
2022/03/27 12:08:11;;;;;;;;;;;19.90;95.80;;;;;;5102507;28;19920;-67
2022/03/27 12:10:41;;;;;;;;;;;19.80;95.00;;;;;;5082712;28;19924;-67
2022/03/27 12:13:08;;;;;;;;;;;19.70;95.00;;;;;;5099099;28;19920;-67
2022/03/27 12:15:49;;;;;;;;;;;19.80;95.00;;;;;;5088787;28;19927;-66
2022/03/27 12:18:25;;;;;;;;;;;19.70;94.70;;;;;;5092980;28;19928;-68
2022/03/27 12:20:52;;;;;;;;;;;19.70;95.00;;;;;;5068741;28;19921;-68
2022/03/27 12:23:23;;;;;;;;;;;19.80;94.80;;;;;;5082818;28;20139;-68
2022/03/27 12:25:56;;;;;;;;;;;19.80;94.80;;;;;;5080379;28;19921;-68
2022/03/27 12:31:18;;;;;;;;;;;20.20;95.00;;;;;;5086995;28;19923;-68
2022/03/27 12:33:46;;;;;;;;;;;20.40;94.70;;;;;;5099543;28;19920;-68
2022/03/27 12:36:13;;;;;;;;;;;20.40;94.20;;;;;;5081251;28;19987;-68
2022/03/27 12:38:40;;;;;;;;;;;20.50;94.30;;;;;;5091202;28;19927;-68
2022/03/27 12:41:08;;;;;;;;;;;20.60;94.30;;;;;;5098107;28;19921;-70
2022/03/27 12:43:35;;;;;;;;;;;20.80;94.00;;;;;;5086326;28;19927;-70
2022/03/27 12:46:16;;;;;;;;;;;20.70;93.80;;;;;;5103173;28;19962;-70
2022/03/27 12:48:43;;;;;;;;;;;20.70;94.20;;;;;;5086493;28;20135;-70
2022/03/27 12:51:13;;;;;;;;;;;20.70;93.90;;;;;;5085069;28;19922;-69
2022/03/27 12:53:39;;;;;;;;;;;20.80;94.10;;;;;;5090496;28;19924;-69
2022/03/27 12:56:09;;;;;;;;;;;20.80;93.60;;;;;;5092550;28;20085;-69
2022/03/27 12:58:37;;;;;;;;;;;20.90;93.70;;;;;;5093139;28;19920;-70
2022/03/27 13:01:04;;;;;;;;;;;21.00;94.00;;;;;;5089255;28;20159;-70
2022/03/27 13:03:31;;;;;;;;;;;21.00;93.60;;;;;;5077798;28;19926;-70
2022/03/27 13:06:01;;;;;;;;;;;21.00;93.50;;;;;;5104535;28;19927;-71
2022/03/27 13:08:30;;;;;;;;;;;21.00;94.40;;;;;;5097906;28;19928;-70
2022/03/27 13:10:57;;;;;;;;;;;21.20;93.60;;;;;;5097282;28;19958;-69
2022/03/27 13:13:32;;;;;;;;;;;21.30;93.30;;;;;;5065995;28;19925;-70
2022/03/27 13:15:58;;;;;;;;;;;21.50;93.20;;;;;;5102240;28;19920;-69
2022/03/27 13:18:29;;;;;;;;;;;21.60;92.80;;;;;;5094970;28;19920;-69
2022/03/27 13:20:55;;;;;;;;;;;21.70;93.50;;;;;;5098486;28;19927;-70
2022/03/27 13:23:22;;;;;;;;;;;22.10;92.60;;;;;;5098821;28;20215;-71
2022/03/27 13:25:51;;;;;;;;;;;22.40;92.30;;;;;;5084092;28;20132;-70
2022/03/27 13:28:18;;;;;;;;;;;22.50;91.90;;;;;;5085114;28;19924;-71
2022/03/27 13:30:44;;;;;;;;;;;22.60;91.50;;;;;;5093221;28;19920;-70
2022/03/27 13:33:11;;;;;;;;;;;22.40;91.90;;;;;;5094340;28;19927;-70
2022/03/27 13:35:38;;;;;;;;;;;22.50;91.10;;;;;;5096678;28;19940;-70
2022/03/27 13:38:04;;;;;;;;;;;22.40;90.90;;;;;;5080838;28;20150;-70
2022/03/27 13:43:16;;;;;;;;;;;22.10;91.90;;;;;;5093054;28;19923;-71
2022/03/27 13:45:43;;;;;;;;;;;22.20;92.00;;;;;;5100531;28;19929;-70
2022/03/27 13:48:11;;;;;;;;;;;22.10;91.20;;;;;;5065196;28;19996;-70
2022/03/27 13:50:38;;;;;;;;;;;21.90;91.10;;;;;;5065024;28;20112;-70
2022/03/27 13:53:05;;;;;;;;;;;21.60;91.70;;;;;;5095232;28;20138;-70
2022/03/27 13:55:32;;;;;;;;;;;21.50;91.30;;;;;;5104436;28;19926;-70
2022/03/27 13:58:01;;;;;;;;;;;21.50;92.00;;;;;;5093769;28;19927;-70
2022/03/27 14:00:29;;;;;;;;;;;21.80;91.60;;;;;;5087342;28;20088;-70
2022/03/27 14:02:56;;;;;;;;;;;22.20;91.00;;;;;;5072053;28;19920;-70
2022/03/27 14:05:22;;;;;;;;;;;22.50;90.90;;;;;;5084331;28;19928;-70
2022/03/27 14:07:49;;;;;;;;;;;22.70;90.80;;;;;;5100258;28;20400;-71
2022/03/27 14:10:15;;;;;;;;;;;22.90;91.10;;;;;;5093152;28;20151;-70
2022/03/27 14:12:42;;;;;;;;;;;23.00;90.50;;;;;;5084423;28;19920;-70
2022/03/27 14:15:09;;;;;;;;;;;23.30;90.30;;;;;;5086557;28;19934;-70
2022/03/27 14:17:37;;;;;;;;;;;23.50;90.20;;;;;;5103796;28;19926;-71
2022/03/27 14:20:04;;;;;;;;;;;23.60;89.00;;;;;;5104288;28;19955;-71
2022/03/27 14:22:31;;;;;;;;;;;23.40;90.30;;;;;;5089248;28;19920;-70
2022/03/27 14:24:58;;;;;;;;;;;23.30;90.10;;;;;;5090942;28;19927;-70
2022/03/27 14:27:24;;;;;;;;;;;23.30;89.70;;;;;;5085142;28;20226;-70
2022/03/27 14:29:51;;;;;;;;;;;23.30;89.00;;;;;;5083599;28;19920;-70
2022/03/27 14:32:17;;;;;;;;;;;23.50;89.50;;;;;;5078533;28;19920;-70
2022/03/27 14:34:45;;;;;;;;;;;23.50;88.30;;;;;;5103000;28;19920;-70
2022/03/27 14:37:13;;;;;;;;;;;23.70;90.00;;;;;;5079342;28;19927;-70
2022/03/27 14:39:40;;;;;;;;;;;23.50;87.70;;;;;;5083062;28;19928;-71